Time;durP1;ratioP1;P1;durP2;ratioP2;P2;SDS_P1;SDS_P2;PMS_P1;PMS_P2;Temp;Humidity;BMP_temperature;BMP_pressure;BME280_temperature;BME280_humidity;BME280_pressure;Samples;Min_cycle;Max_cycle;Signal;HPM_P1;HPM_P2
2022/07/18 00:00:08;;;;;;;5.73;2.30;;;;;;;16.06;79.89;102014.25;5095016;28;20524;-68
2022/07/18 00:02:35;;;;;;;2.93;1.90;;;;;;;16.10;79.96;102015.28;5094983;28;20439;-68
2022/07/18 00:05:01;;;;;;;2.73;1.83;;;;;;;16.12;80.04;102016.59;5094418;28;20571;-68
2022/07/18 00:07:28;;;;;;;3.83;1.93;;;;;;;16.18;80.03;102005.56;5094841;28;20463;-68
2022/07/18 00:09:55;;;;;;;2.33;1.40;;;;;;;16.19;79.60;102002.53;5094440;28;20543;-69
2022/07/18 00:12:21;;;;;;;3.90;1.90;;;;;;;16.22;79.38;101996.44;5094728;28;20539;-67
2022/07/18 00:14:48;;;;;;;2.33;1.80;;;;;;;16.24;79.48;101998.88;5094335;28;20997;-68
2022/07/18 00:17:16;;;;;;;5.80;1.97;;;;;;;16.27;79.97;102001.81;5094771;28;20440;-68
2022/07/18 00:19:42;;;;;;;2.90;1.80;;;;;;;16.24;78.86;102005.16;5094683;28;20443;-68
2022/07/18 00:22:09;;;;;;;2.90;1.73;;;;;;;16.21;75.49;102000.31;5094697;28;20537;-68
2022/07/18 00:24:37;;;;;;;2.60;2.10;;;;;;;16.13;75.42;102009.22;5094825;28;20436;-68
2022/07/18 00:27:06;;;;;;;2.30;1.73;;;;;;;16.11;75.67;102017.72;5094152;28;20479;-68
2022/07/18 00:29:35;;;;;;;2.83;2.47;;;;;;;16.06;76.38;102014.25;5094490;28;20452;-68
2022/07/18 00:32:02;;;;;;;2.07;1.63;;;;;;;16.05;77.39;102018.13;5094353;28;20440;-68
2022/07/18 00:34:30;;;;;;;3.80;1.97;;;;;;;16.06;78.28;102014.25;5094488;28;20893;-69
2022/07/18 00:36:57;;;;;;;3.00;1.70;;;;;;;16.06;78.92;102017.81;5094484;28;20527;-68
2022/07/18 00:39:24;;;;;;;2.77;1.80;;;;;;;16.03;79.46;102018.44;5094609;28;20443;-69
2022/07/18 00:41:51;;;;;;;2.47;1.60;;;;;;;16.00;79.38;102016.28;5094560;28;20527;-67
2022/07/18 00:44:19;;;;;;;4.33;1.57;;;;;;;16.02;79.32;102014.06;5094140;28;20535;-68
2022/07/18 00:46:45;;;;;;;2.33;1.57;;;;;;;16.02;79.88;102019.50;5094182;28;20567;-69
2022/07/18 00:49:12;;;;;;;2.20;1.40;;;;;;;16.02;80.16;102024.19;5093943;28;20535;-68
2022/07/18 00:51:40;;;;;;;4.83;2.00;;;;;;;16.02;80.50;102018.72;5094342;28;20535;-68
2022/07/18 00:54:07;;;;;;;2.50;1.77;;;;;;;16.04;80.49;102014.56;5094023;28;20472;-68
2022/07/18 00:56:34;;;;;;;2.67;1.70;;;;;;;16.02;80.42;102024.97;5093659;28;21037;-68
2022/07/18 00:59:00;;;;;;;2.20;1.53;;;;;;;16.01;80.85;102025.28;5093987;28;20515;-68
2022/07/18 01:01:47;;;;;;;2.70;1.70;;;;;;;16.02;80.89;102015.97;5093935;28;20531;-68
2022/07/18 01:04:16;;;;;;;4.10;2.23;;;;;;;16.02;81.98;102021.44;5093884;28;20425;-68
2022/07/18 01:06:46;;;;;;;4.30;1.90;;;;;;;15.96;81.63;102015.28;5093604;28;20577;-69
2022/07/18 01:09:13;;;;;;;2.60;1.60;;;;;;;15.98;81.71;102017.69;5093955;28;20459;-68
2022/07/18 01:11:40;;;;;;;2.27;1.57;;;;;;;15.98;81.40;102015.78;5093860;28;20523;-68
2022/07/18 01:14:08;;;;;;;4.27;1.60;;;;;;;15.94;81.87;102013.94;5093455;28;20934;-68
2022/07/18 01:16:34;;;;;;;3.33;1.60;;;;;;;15.90;81.82;102013.75;5093226;28;20977;-68
2022/07/18 01:19:01;;;;;;;2.27;1.50;;;;;;;15.83;82.01;102011.41;5093757;28;20444;-69
2022/07/18 01:21:29;;;;;;;4.40;2.10;;;;;;;15.76;82.14;102016.47;5093693;28;20444;-68
2022/07/18 01:23:56;;;;;;;2.43;1.77;;;;;;;15.78;82.17;102006.03;5093242;28;20810;-68
2022/07/18 01:26:23;;;;;;;3.77;1.73;;;;;;;15.74;82.15;102006.94;5093435;28;20557;-68
2022/07/18 01:28:49;;;;;;;2.20;1.90;;;;;;;15.73;82.61;102010.78;5093155;28;20486;-69
2022/07/18 01:31:16;;;;;;;4.50;1.60;;;;;;;15.62;82.65;101999.19;5093595;28;20447;-68
2022/07/18 01:33:43;;;;;;;1.60;1.27;;;;;;;15.61;82.18;102003.84;5093741;28;20476;-69
2022/07/18 01:36:09;;;;;;;2.03;1.53;;;;;;;15.59;82.51;102011.53;5093725;28;20563;-68
2022/07/18 01:38:38;;;;;;;3.00;1.50;;;;;;;15.57;82.50;102011.00;5093291;28;20527;-68
2022/07/18 01:41:06;;;;;;;2.70;1.57;;;;;;;15.51;82.45;102011.41;5093080;28;20450;-68
2022/07/18 01:43:34;;;;;;;2.23;1.40;;;;;;;15.43;81.72;102006.63;5093583;28;20536;-67
2022/07/18 01:46:01;;;;;;;1.97;1.37;;;;;;;15.37;78.29;102011.38;5092882;28;21016;-68
2022/07/18 01:48:27;;;;;;;1.83;1.23;;;;;;;15.23;77.88;102018.69;5093213;28;20930;-68
2022/07/18 01:50:54;;;;;;;4.00;1.70;;;;;;;15.09;77.87;102024.09;5093281;28;20539;-68
2022/07/18 01:53:21;;;;;;;4.30;2.40;;;;;;;14.97;78.76;102021.00;5093510;28;20629;-69
2022/07/18 01:55:49;;;;;;;5.37;1.97;;;;;;;14.93;80.76;102022.69;5093332;28;20463;-68
2022/07/18 01:58:15;;;;;;;1.47;1.23;;;;;;;14.92;81.88;102015.59;5093347;28;20470;-67
2022/07/18 02:00:42;;;;;;;2.47;2.10;;;;;;;14.93;82.90;102011.78;5094728;28;20464;-69
2022/07/18 02:03:09;;;;;;;2.37;1.60;;;;;;;14.92;82.83;102010.16;5097152;28;20883;-68
2022/07/18 02:05:35;;;;;;;6.83;2.30;;;;;;;14.91;83.36;102008.53;5096917;28;20511;-68
2022/07/18 02:08:02;;;;;;;2.40;1.67;;;;;;;14.86;83.49;102004.75;5097040;28;20816;-68
2022/07/18 02:10:29;;;;;;;5.40;2.10;;;;;;;14.84;83.97;102001.53;5096935;28;21004;-64
2022/07/18 02:12:57;;;;;;;3.07;1.97;;;;;;;14.82;84.33;102001.00;5096777;28;20933;-67
2022/07/18 02:15:24;;;;;;;2.90;1.77;;;;;;;14.76;82.50;101999.47;5096933;28;20549;-67
2022/07/18 02:17:51;;;;;;;3.20;2.00;;;;;;;14.67;82.03;102001.22;5096983;28;20436;-65
2022/07/18 02:20:18;;;;;;;4.93;2.53;;;;;;;14.56;81.84;101999.72;5096834;28;20436;-67
2022/07/18 02:22:44;;;;;;;3.73;1.60;;;;;;;14.44;81.43;102007.50;5096750;28;20527;-68
2022/07/18 02:25:12;;;;;;;4.20;1.93;;;;;;;14.37;82.26;101999.69;5096302;28;20491;-66
2022/07/18 02:27:39;;;;;;;3.40;1.77;;;;;;;14.32;83.80;101997.00;5096683;28;20527;-67
2022/07/18 02:30:09;;;;;;;3.17;1.60;;;;;;;14.30;84.67;101994.59;5096372;28;20528;-67
2022/07/18 02:32:37;;;;;;;2.37;1.47;;;;;;;14.29;85.84;101998.41;5096303;28;20536;-67
2022/07/18 02:35:04;;;;;;;4.93;1.90;;;;;;;14.27;86.20;101997.09;5096417;28;20518;-68
2022/07/18 02:37:31;;;;;;;3.50;1.80;;;;;;;14.28;86.43;102004.97;5096673;28;20528;-67
2022/07/18 02:39:58;;;;;;;1.83;1.53;;;;;;;14.25;86.96;102010.16;5096360;28;20450;-68
2022/07/18 02:42:24;;;;;;;3.37;1.70;;;;;;;14.18;87.22;102012.44;5096111;28;21009;-67
2022/07/18 02:44:51;;;;;;;9.50;2.70;;;;;;;14.15;87.42;102000.22;5096409;28;20551;-67
2022/07/18 02:47:19;;;;;;;3.43;2.10;;;;;;;14.16;87.20;102001.81;5096305;28;20571;-67
2022/07/18 02:49:45;;;;;;;3.20;2.20;;;;;;;14.19;86.98;101998.53;5096281;28;20527;-68
2022/07/18 02:52:12;;;;;;;3.80;2.57;;;;;;;14.15;86.41;102000.22;5096352;28;20541;-66
2022/07/18 02:54:39;;;;;;;3.37;2.30;;;;;;;14.06;86.73;101999.22;5096183;28;20548;-67
2022/07/18 02:57:06;;;;;;;5.50;2.73;;;;;;;14.08;87.30;101999.75;5096178;28;20482;-68
2022/07/18 02:59:33;;;;;;;5.90;1.90;;;;;;;14.08;87.83;101997.03;5095720;28;20815;-67
2022/07/18 03:02:00;;;;;;;6.50;3.10;;;;;;;14.09;87.73;101987.75;5095952;28;20479;-67
2022/07/18 03:04:28;;;;;;;4.97;2.43;;;;;;;14.17;86.71;101998.03;5095908;28;20506;-67
2022/07/18 03:06:55;;;;;;;4.73;2.70;;;;;;;14.13;86.40;101986.88;5095534;28;20997;-67
2022/07/18 03:09:21;;;;;;;14.57;3.43;;;;;;;14.11;86.61;101991.00;5095872;28;20527;-67
2022/07/18 03:11:48;;;;;;;3.90;2.23;;;;;;;14.08;87.09;101992.41;5095965;28;20440;-67
2022/07/18 03:14:15;;;;;;;6.43;2.43;;;;;;;14.10;86.98;101975.75;5095466;28;21013;-65
2022/07/18 03:16:41;;;;;;;4.30;2.40;;;;;;;14.08;86.91;101983.41;5095802;28;20503;-67
2022/07/18 03:19:08;;;;;;;7.80;2.83;;;;;;;14.02;86.87;101990.00;5095728;28;21084;-67
2022/07/18 03:21:36;;;;;;;9.30;3.43;;;;;;;13.87;88.04;101983.63;5095647;28;20440;-67
2022/07/18 03:24:03;;;;;;;7.50;4.03;;;;;;;13.89;86.90;101988.78;5095152;28;20443;-67
2022/07/18 03:26:30;;;;;;;5.90;3.13;;;;;;;13.84;84.92;101981.47;5095602;28;20901;-67
2022/07/18 03:28:56;;;;;;;5.77;3.20;;;;;;;13.77;83.13;101981.00;5095533;28;20523;-67
2022/07/18 03:31:24;;;;;;;10.77;3.13;;;;;;;13.68;83.76;101988.19;5095484;28;20532;-67
2022/07/18 03:33:50;;;;;;;3.77;2.80;;;;;;;13.63;85.09;101985.50;5095345;28;20523;-66
2022/07/18 03:36:17;;;;;;;7.37;3.97;;;;;;;13.60;86.83;101984.16;5095448;28;20552;-67
2022/07/18 03:38:46;;;;;;;3.10;2.63;;;;;;;13.59;87.70;101988.00;5095156;28;20472;-67
2022/07/18 03:41:13;;;;;;;8.43;3.30;;;;;;;13.63;87.75;101983.59;5095290;28;20539;-67
2022/07/18 03:43:40;;;;;;;7.50;4.43;;;;;;;13.69;88.09;101987.09;5095273;28;20535;-67
2022/07/18 03:46:07;;;;;;;9.33;3.73;;;;;;;13.67;88.89;101991.19;5094675;28;20571;-67
2022/07/18 03:48:34;;;;;;;6.07;3.80;;;;;;;13.67;89.02;101988.47;5095238;28;20472;-67
2022/07/18 03:51:01;;;;;;;7.17;4.03;;;;;;;13.68;89.00;101990.91;5095075;28;20524;-67
2022/07/18 03:53:28;;;;;;;8.13;4.67;;;;;;;13.72;89.02;101989.22;5094964;28;20547;-66
2022/07/18 03:55:56;;;;;;;6.67;4.00;;;;;;;13.80;89.14;101993.22;5094977;28;20488;-68
2022/07/18 03:58:22;;;;;;;10.77;5.03;;;;;;;13.80;88.94;101987.78;5094929;28;20509;-67
2022/07/18 04:00:49;;;;;;;7.53;4.00;;;;;;;13.83;89.09;102001.63;5095005;28;20523;-67
2022/07/18 04:03:15;;;;;;;9.80;4.30;;;;;;;13.88;89.13;101993.41;5094551;28;20472;-66
2022/07/18 04:05:42;;;;;;;11.13;4.90;;;;;;;13.79;89.51;102000.59;5094436;28;20560;-67
2022/07/18 04:08:09;;;;;;;8.20;4.23;;;;;;;13.73;90.17;101993.59;5094426;28;20535;-67
2022/07/18 04:10:39;;;;;;;10.53;4.67;;;;;;;13.84;90.00;101986.91;5094386;28;20889;-67
2022/07/18 04:13:08;;;;;;;5.57;3.60;;;;;;;13.99;90.13;102002.31;5094581;28;20461;-67
2022/07/18 04:15:35;;;;;;;9.17;4.97;;;;;;;13.99;90.39;101985.97;5094150;28;20551;-67
2022/07/18 04:18:01;;;;;;;10.90;5.70;;;;;;;13.99;90.12;101987.84;5094270;28;20938;-67
2022/07/18 04:20:28;;;;;;;9.40;4.83;;;;;;;14.01;89.89;101983.75;5094519;28;20535;-66
2022/07/18 04:22:56;;;;;;;10.60;5.23;;;;;;;14.03;90.58;101984.28;5093950;28;20455;-68
2022/07/18 04:25:26;;;;;;;9.53;4.40;;;;;;;14.11;90.20;101988.25;5094309;28;20902;-67
2022/07/18 04:27:53;;;;;;;12.40;5.93;;;;;;;14.14;90.07;101984.97;5094328;28;20471;-67
2022/07/18 04:30:23;;;;;;;12.40;6.00;;;;;;;14.21;89.49;101988.16;5094404;28;20871;-66
2022/07/18 04:32:50;;;;;;;13.80;6.90;;;;;;;14.28;88.98;101991.31;5094106;28;20890;-67
2022/07/18 04:35:17;;;;;;;12.93;5.33;;;;;;;14.26;89.46;101984.56;5094311;28;20503;-66
2022/07/18 04:37:44;;;;;;;10.43;5.10;;;;;;;14.25;90.41;101983.72;5094260;28;20445;-68
2022/07/18 04:40:12;;;;;;;10.00;4.67;;;;;;;14.37;88.69;101981.41;5093780;28;20523;-66
2022/07/18 04:42:38;;;;;;;11.13;5.10;;;;;;;14.39;86.85;101981.13;5094042;28;20441;-67
2022/07/18 04:45:06;;;;;;;10.20;5.10;;;;;;;14.41;85.75;101989.81;5094041;28;20460;-68
2022/07/18 04:47:34;;;;;;;7.23;4.50;;;;;;;14.45;85.35;101987.31;5093966;28;20479;-67
2022/07/18 04:50:01;;;;;;;10.87;5.50;;;;;;;14.48;84.95;101986.75;5093981;28;20444;-68
2022/07/18 04:52:28;;;;;;;8.27;4.60;;;;;;;14.46;87.08;101978.84;5093954;28;20512;-67
2022/07/18 04:54:54;;;;;;;10.20;5.23;;;;;;;14.64;88.40;101985.44;5093506;28;20543;-68
2022/07/18 04:57:21;;;;;;;7.87;4.17;;;;;;;14.75;89.63;101978.75;5093936;28;20464;-68
2022/07/18 04:59:48;;;;;;;6.50;4.50;;;;;;;14.83;90.41;101983.56;5093512;28;20900;-68
2022/07/18 05:02:14;;;;;;;6.30;4.20;;;;;;;14.86;91.01;101982.94;5093511;28;20806;-68
2022/07/18 05:04:42;;;;;;;6.80;4.87;;;;;;;14.94;90.59;101978.75;5093471;28;20554;-67
2022/07/18 05:07:09;;;;;;;9.03;4.20;;;;;;;15.05;89.27;101980.22;5094516;22;20945;-73
2022/07/18 05:09:36;;;;;;;5.43;2.90;;;;;;;15.16;87.52;101980.84;5073087;28;20480;-74
2022/07/18 05:12:03;;;;;;;5.97;3.03;;;;;;;15.28;84.06;101983.13;5073311;28;20536;-73
2022/07/18 05:14:29;;;;;;;5.30;3.10;;;;;;;15.35;82.62;101984.34;5072958;28;20884;-74
2022/07/18 05:16:56;;;;;;;4.43;1.93;;;;;;;15.49;83.53;101978.13;5073203;28;20544;-73
2022/07/18 05:19:22;;;;;;;2.90;1.80;;;;;;;15.58;83.24;101976.31;5073325;28;20473;-74
2022/07/18 05:21:50;;;;;;;4.63;2.60;;;;;;;15.78;82.31;101980.63;5073117;28;20540;-73
2022/07/18 05:24:17;;;;;;;4.00;1.73;;;;;;;15.93;82.03;101980.34;5072858;28;20528;-73
2022/07/18 05:26:44;;;;;;;7.10;1.97;;;;;;;16.02;82.64;101974.97;5073021;28;20491;-74
2022/07/18 05:29:12;;;;;;;3.33;2.00;;;;;;;16.14;83.08;101967.09;5073122;28;20528;-75
2022/07/18 05:31:39;;;;;;;2.23;1.67;;;;;;;16.25;83.82;101957.56;5073121;28;20453;-73
2022/07/18 05:34:06;;;;;;;2.40;1.63;;;;;;;16.33;84.54;101969.69;5073219;28;20524;-74
2022/07/18 05:36:33;;;;;;;3.10;2.77;;;;;;;16.39;85.32;101974.78;5075763;28;21033;-74
2022/07/18 05:39:01;;;;;;;3.47;2.03;;;;;;;16.51;84.66;101982.47;5077252;28;20440;-74
2022/07/18 05:41:27;;;;;;;2.73;1.90;;;;;;;16.59;84.01;101972.69;5077207;28;20441;-70
2022/07/18 05:43:54;;;;;;;2.20;1.50;;;;;;;16.66;83.71;101975.84;5076845;28;20528;-70
2022/07/18 05:46:20;;;;;;;2.67;1.67;;;;;;;16.74;84.20;101966.94;5076961;28;20497;-70
2022/07/18 05:48:47;;;;;;;2.70;1.37;;;;;;;16.82;83.58;101957.97;5076730;28;20532;-70
2022/07/18 05:51:14;;;;;;;4.33;1.60;;;;;;;16.90;82.47;101962.69;5077035;28;20449;-70
2022/07/18 05:53:41;;;;;;;7.83;2.50;;;;;;;16.99;82.27;101964.69;5076949;28;20477;-70
2022/07/18 05:56:10;;;;;;;4.47;2.63;;;;;;;17.12;81.75;101961.09;5076497;28;20540;-70
2022/07/18 05:58:36;;;;;;;2.13;1.90;;;;;;;17.19;81.80;101968.88;5077103;28;20528;-70
2022/07/18 06:01:03;;;;;;;3.13;2.27;;;;;;;17.34;80.39;101963.00;5076733;28;20524;-70
2022/07/18 06:03:30;;;;;;;2.50;1.70;;;;;;;17.48;79.55;101968.41;5076454;28;20452;-70
2022/07/18 06:05:57;;;;;;;2.30;1.67;;;;;;;17.59;79.68;101975.25;5076317;28;20556;-70
2022/07/18 06:08:24;;;;;;;2.73;1.60;;;;;;;17.75;79.33;101967.44;5076674;28;20473;-72
2022/07/18 06:10:50;;;;;;;4.10;1.87;;;;;;;17.85;76.72;101981.69;5076327;28;20479;-73
2022/07/18 06:13:18;;;;;;;2.87;1.70;;;;;;;17.98;74.47;101973.69;5076870;28;20524;-73
2022/07/18 06:15:45;;;;;;;4.60;1.23;;;;;;;18.22;74.28;101976.81;5076105;28;20548;-73
2022/07/18 06:18:11;;;;;;;1.63;1.07;;;;;;;18.43;72.99;101988.00;5076756;28;20520;-73
2022/07/18 06:20:38;;;;;;;1.30;1.03;;;;;;;18.64;72.02;101979.97;5076454;28;20532;-73
2022/07/18 06:23:05;;;;;;;3.60;1.87;;;;;;;18.86;70.46;101993.59;5076232;28;20481;-73
2022/07/18 06:25:31;;;;;;;1.40;1.10;;;;;;;19.06;67.97;101994.06;5076275;28;20850;-73
2022/07/18 06:27:58;;;;;;;1.73;1.40;;;;;;;19.24;67.91;102003.88;5075915;28;20477;-73
2022/07/18 06:30:26;;;;;;;4.03;1.73;;;;;;;19.36;68.21;101992.25;5075887;28;20532;-73
2022/07/18 06:32:52;;;;;;;2.17;1.80;;;;;;;19.45;67.79;102001.28;5076162;28;20529;-73
2022/07/18 06:35:19;;;;;;;1.40;1.20;;;;;;;19.67;65.32;102000.28;5076194;28;20472;-73
2022/07/18 06:37:46;;;;;;;7.00;1.67;;;;;;;19.79;65.91;102002.34;5075752;28;20469;-73
2022/07/18 06:40:13;;;;;;;2.00;1.30;;;;;;;19.93;63.59;101997.44;5076119;28;20449;-73
2022/07/18 06:42:39;;;;;;;2.13;1.20;;;;;;;20.01;64.37;101988.34;5076027;28;20488;-73
2022/07/18 06:45:07;;;;;;;3.30;1.30;;;;;;;20.15;63.39;101990.88;5075644;28;21016;-73
2022/07/18 06:47:35;;;;;;;1.10;0.87;;;;;;;20.28;64.23;101997.28;5075301;28;20560;-73
2022/07/18 06:50:02;;;;;;;2.60;1.20;;;;;;;20.37;63.60;101987.84;5075597;28;20476;-74
2022/07/18 06:52:28;;;;;;;2.50;0.67;;;;;;;20.50;63.68;101993.47;5075611;28;20480;-73
2022/07/18 06:54:55;;;;;;;2.00;1.07;;;;;;;20.59;61.30;101983.19;5075653;28;20611;-73
2022/07/18 06:57:22;;;;;;;1.90;1.40;;;;;;;20.61;60.90;101972.63;5075204;28;20565;-72
2022/07/18 06:59:48;;;;;;;1.43;0.93;;;;;;;20.73;60.33;101969.97;5075612;28;20536;-71
2022/07/18 07:02:16;;;;;;;1.63;1.00;;;;;;;20.79;61.34;101974.13;5075532;28;20528;-70
2022/07/18 07:04:44;;;;;;;1.60;0.90;;;;;;;20.95;60.01;101965.25;5075328;28;20479;-74
2022/07/18 07:07:10;;;;;;;1.53;0.93;;;;;;;21.06;58.86;101972.75;5075400;28;20523;-75
2022/07/18 07:09:37;;;;;;;1.97;1.10;;;;;;;21.07;58.51;101959.75;5075215;28;20488;-74
2022/07/18 07:12:04;;;;;;;1.80;1.10;;;;;;;21.08;59.09;101958.66;5075714;28;20520;-74
2022/07/18 07:14:30;;;;;;;0.97;0.83;;;;;;;21.12;58.93;101960.38;5075493;28;20531;-74
2022/07/18 07:16:57;;;;;;;2.40;1.20;;;;;;;21.16;60.69;101953.06;5075186;28;20527;-75
2022/07/18 07:19:24;;;;;;;1.10;0.97;;;;;;;21.20;61.09;101949.59;5075223;28;20499;-75
2022/07/18 07:21:52;;;;;;;3.43;0.80;;;;;;;21.36;58.28;101945.88;5074862;28;20491;-75
2022/07/18 07:24:19;;;;;;;1.07;0.60;;;;;;;21.43;60.24;101950.84;5075161;28;20533;-76
2022/07/18 07:26:45;;;;;;;1.23;0.70;;;;;;;21.50;58.25;101947.53;5074739;28;20567;-75
2022/07/18 07:29:12;;;;;;;3.23;1.00;;;;;;;21.54;59.84;101954.75;5075264;28;20473;-75
2022/07/18 07:31:39;;;;;;;1.63;1.10;;;;;;;21.60;57.43;101947.06;5075140;28;20435;-74
2022/07/18 07:34:05;;;;;;;1.20;0.80;;;;;;;21.64;58.00;101954.31;5075039;28;20472;-74
2022/07/18 07:36:32;;;;;;;1.43;1.03;;;;;;;21.78;54.63;101947.66;5074986;28;20892;-74
2022/07/18 07:39:00;;;;;;;1.37;0.77;;;;;;;21.89;54.42;101944.09;5075021;28;20512;-75
2022/07/18 07:41:26;;;;;;;2.00;1.07;;;;;;;22.04;54.08;101944.56;5074977;28;20532;-74
2022/07/18 07:43:53;;;;;;;1.73;0.83;;;;;;;22.10;53.29;101955.03;5074921;28;20462;-75
2022/07/18 07:46:20;;;;;;;1.00;0.90;;;;;;;22.21;53.55;101960.91;5074599;28;20990;-75
2022/07/18 07:48:47;;;;;;;1.30;0.90;;;;;;;22.23;53.33;101955.84;5074426;28;20573;-75
2022/07/18 07:51:14;;;;;;;1.67;0.97;;;;;;;22.32;51.95;101962.06;5074760;28;20452;-75
2022/07/18 07:53:41;;;;;;;1.60;1.00;;;;;;;22.39;53.41;101972.50;5074875;28;20488;-74
2022/07/18 07:56:10;;;;;;;1.50;0.80;;;;;;;22.55;52.09;101972.59;5074567;28;20457;-74
2022/07/18 07:58:37;;;;;;;1.20;1.03;;;;;;;22.65;50.79;101964.63;5073738;28;20481;-74
2022/07/18 08:01:04;;;;;;;1.73;0.90;;;;;;;22.73;51.06;101973.94;5078253;28;20524;-75
2022/07/18 08:03:30;;;;;;;1.47;0.97;;;;;;;22.75;50.34;101979.09;5074415;28;20445;-75
2022/07/18 08:05:57;;;;;;;1.93;0.80;;;;;;;22.87;50.24;101970.78;5074270;28;20485;-75
2022/07/18 08:08:25;;;;;;;0.80;0.70;;;;;;;22.99;49.47;101970.75;5074434;28;20493;-75
2022/07/18 08:10:53;;;;;;;0.90;0.70;;;;;;;23.08;49.71;101971.41;5074406;28;20456;-75
2022/07/18 08:13:21;;;;;;;1.77;1.03;;;;;;;23.23;48.73;101977.31;5074584;28;20437;-74
2022/07/18 08:15:47;;;;;;;1.10;0.80;;;;;;;23.35;48.62;101975.31;5074006;28;20492;-74
2022/07/18 08:18:14;;;;;;;1.00;0.70;;;;;;;23.49;48.68;101965.78;5074202;28;20469;-74
2022/07/18 08:20:41;;;;;;;1.07;0.70;;;;;;;23.55;48.71;101967.94;5074191;28;20473;-75
2022/07/18 08:23:09;;;;;;;1.60;0.93;;;;;;;23.60;48.77;101956.59;5074145;28;20575;-74
2022/07/18 08:25:41;;;;;;;2.20;0.80;;;;;;;23.62;48.71;101957.03;5074030;28;20829;-74
2022/07/18 08:28:09;;;;;;;1.60;1.03;;;;;;;23.76;45.36;101967.69;5073608;28;20990;-74
2022/07/18 08:30:38;;;;;;;1.90;1.00;;;;;;;23.77;45.78;101969.28;5073636;28;20469;-75
2022/07/18 08:33:05;;;;;;;2.30;1.20;;;;;;;23.73;48.60;101965.66;5073850;28;20448;-74
2022/07/18 08:35:32;;;;;;;2.83;1.37;;;;;;;23.78;47.08;101961.81;5074104;28;20520;-71
2022/07/18 08:37:59;;;;;;;2.57;1.00;;;;;;;23.79;46.84;101955.91;5073805;28;20446;-74
2022/07/18 08:40:26;;;;;;;4.97;1.13;;;;;;;23.83;46.57;101956.81;5073827;28;20524;-73
2022/07/18 08:42:56;;;;;;;1.93;1.27;;;;;;;23.88;46.41;101958.50;5073398;28;21026;-73
2022/07/18 08:45:25;;;;;;;1.30;0.93;;;;;;;23.98;44.82;101955.16;5073370;28;20842;-73
2022/07/18 08:47:54;;;;;;;1.70;1.00;;;;;;;23.94;44.69;101965.34;5073563;28;20580;-74
2022/07/18 08:50:21;;;;;;;3.10;1.40;;;;;;;23.92;44.08;101959.38;5073692;28;20528;-73
2022/07/18 08:52:48;;;;;;;1.80;1.10;;;;;;;24.02;46.43;101955.25;5073581;28;20445;-74
2022/07/18 08:55:15;;;;;;;1.70;1.00;;;;;;;24.08;46.43;101951.88;5073159;28;20524;-74
2022/07/18 08:57:41;;;;;;;2.20;1.27;;;;;;;24.14;47.97;101960.69;5073305;28;20931;-74
2022/07/18 09:00:10;;;;;;;2.53;1.27;;;;;;;24.30;46.51;101963.41;5073494;28;20447;-74
2022/07/18 09:02:37;;;;;;;3.70;1.87;;;;;;;24.39;45.82;101953.78;5073131;28;20477;-69
2022/07/18 09:05:18;;;;;;;1.53;0.90;;;;;;;24.50;45.86;101953.22;5073536;28;20437;-73
2022/07/18 09:07:44;;;;;;;2.30;1.30;;;;;;;24.59;45.98;101964.88;5073173;28;20493;-75
2022/07/18 09:10:11;;;;;;;2.90;1.40;;;;;;;24.63;45.31;101954.69;5073277;28;20528;-72
2022/07/18 09:12:38;;;;;;;2.33;1.37;;;;;;;24.58;44.56;101953.00;5073359;28;20469;-73
2022/07/18 09:15:07;;;;;;;3.40;1.77;;;;;;;24.69;44.64;101958.75;5072965;28;20909;-73
2022/07/18 09:17:35;;;;;;;3.57;2.00;;;;;;;24.72;43.62;101951.69;5072894;28;21021;-73
2022/07/18 09:20:08;;;;;;;1.90;1.17;;;;;;;24.90;43.89;101950.88;5073477;28;20524;-72
2022/07/18 09:22:37;;;;;;;1.57;0.93;;;;;;;25.12;45.66;101959.66;5073266;28;20445;-73
2022/07/18 09:25:07;;;;;;;3.70;1.30;;;;;;;25.21;44.14;101956.66;5073148;28;20524;-75
2022/07/18 09:27:39;;;;;;;1.50;1.00;;;;;;;25.38;45.65;101951.41;5072839;28;21085;-74
2022/07/18 09:30:16;;;;;;;2.80;1.13;;;;;;;25.31;47.75;101958.81;5073210;28;20432;-73
2022/07/18 09:32:45;;;;;;;1.80;1.30;;;;;;;25.33;43.59;101953.72;5072932;28;20464;-75
2022/07/18 09:35:15;;;;;;;2.60;1.00;;;;;;;25.27;43.66;101946.84;5073254;28;20532;-72
2022/07/18 09:37:56;;;;;;;1.77;1.40;;;;;;;25.21;42.86;101949.13;5073189;28;20442;-72
2022/07/18 09:40:25;;;;;;;2.70;0.97;;;;;;;25.18;42.90;101952.63;5073024;28;20516;-71
2022/07/18 09:42:53;;;;;;;3.67;1.50;;;;;;;25.20;42.32;101941.19;5073018;28;20464;-73
2022/07/18 09:45:24;;;;;;;1.83;1.30;;;;;;;25.19;42.07;101948.69;5072510;28;21044;-73
2022/07/18 09:47:52;;;;;;;4.23;1.20;;;;;;;25.34;43.36;101946.97;5072774;28;20549;-72
2022/07/18 09:50:28;;;;;;;1.40;0.90;;;;;;;25.41;44.15;101950.69;5072842;28;20449;-72
2022/07/18 09:53:08;;;;;;;1.50;0.90;;;;;;;25.56;44.95;101951.72;5072764;28;20516;-73
2022/07/18 09:55:35;;;;;;;4.60;1.00;;;;;;;25.74;42.79;101938.16;5072757;28;20490;-72
2022/07/18 09:58:05;;;;;;;3.80;0.90;;;;;;;25.78;42.47;101950.16;5072773;28;20871;-72
2022/07/18 10:00:35;;;;;;;1.50;1.00;;;;;;;25.84;41.78;101943.09;5072721;28;20521;-72
2022/07/18 10:03:02;;;;;;;1.80;1.03;;;;;;;25.84;43.56;101945.88;5072743;28;20460;-72
2022/07/18 10:05:33;;;;;;;2.20;1.00;;;;;;;25.91;42.12;101940.44;5072271;28;20506;-72
2022/07/18 10:08:01;;;;;;;4.10;1.70;;;;;;;26.03;43.27;101942.22;5072823;28;20921;-72
2022/07/18 10:10:28;;;;;;;2.93;1.43;;;;;;;26.00;42.59;101936.59;5072838;28;20555;-72
2022/07/18 10:12:56;;;;;;;1.60;0.90;;;;;;;25.96;42.46;101941.28;5072749;28;20503;-72
2022/07/18 10:15:25;;;;;;;2.47;1.73;;;;;;;25.92;41.95;101939.25;5072677;28;20457;-72
2022/07/18 10:17:52;;;;;;;2.00;1.20;;;;;;;26.07;42.27;101933.91;5072724;28;20445;-72
2022/07/18 10:20:26;;;;;;;2.93;1.43;;;;;;;26.07;42.03;101936.69;5072596;28;20527;-72
2022/07/18 10:22:57;;;;;;;3.60;1.73;;;;;;;26.12;41.90;101950.28;5075862;28;20507;-73
2022/07/18 10:25:24;;;;;;;2.83;1.17;;;;;;;25.96;44.47;101935.75;5076295;28;20512;-73
2022/07/18 10:27:53;;;;;;;3.33;1.30;;;;;;;26.00;43.51;101931.03;5076221;28;20447;-72
2022/07/18 10:30:36;;;;;;;1.73;1.10;;;;;;;26.11;42.83;101934.75;5076235;28;20441;-72
2022/07/18 10:33:04;;;;;;;2.33;1.43;;;;;;;26.30;43.28;101939.41;5076837;28;20433;-73
2022/07/18 10:36:00;;;;;;;1.97;1.40;;;;;;;26.45;40.64;101944.00;5076174;28;20502;-72
2022/07/18 10:38:28;;;;;;;1.70;1.20;;;;;;;26.34;41.00;101932.72;5076073;28;20436;-73
2022/07/18 10:41:13;;;;;;;2.70;1.63;;;;;;;26.45;40.89;101937.66;5075808;28;20471;-72
2022/07/18 10:43:42;;;;;;;1.50;1.00;;;;;;;26.52;42.05;101923.81;5076037;28;20481;-72
2022/07/18 10:46:10;;;;;;;1.70;1.00;;;;;;;26.68;41.61;101924.44;5075601;28;20548;-72
2022/07/18 10:48:57;;;;;;;4.23;1.50;;;;;;;26.81;42.10;101917.44;5075919;28;20477;-72
2022/07/18 10:51:35;;;;;;;3.07;1.60;;;;;;;26.94;40.48;101928.31;5075880;28;20441;-72
2022/07/18 10:54:11;;;;;;;2.10;1.13;;;;;;;26.82;39.54;101926.56;5075929;28;20445;-71
2022/07/18 10:57:11;;;;;;;2.13;1.13;;;;;;;26.95;40.82;101935.47;5075785;28;20461;-73
2022/07/18 10:59:59;;;;;;;3.83;1.10;;;;;;;27.14;39.26;101938.91;5075744;28;20480;-71
2022/07/18 11:02:32;;;;;;;2.53;1.50;;;;;;;27.34;39.61;101927.56;5075758;28;20795;-71
2022/07/18 11:04:59;;;;;;;1.50;0.73;;;;;;;27.51;38.65;101926.91;5075351;28;20433;-72
2022/07/18 11:07:26;;;;;;;2.13;1.40;;;;;;;27.60;38.52;101932.16;5075170;28;20507;-72
2022/07/18 11:09:54;;;;;;;2.03;1.30;;;;;;;27.69;39.75;101924.28;5075191;28;20476;-72
2022/07/18 11:12:23;;;;;;;2.03;1.53;;;;;;;27.81;38.81;101915.66;5075509;28;20437;-72
2022/07/18 11:15:20;;;;;;;2.70;1.30;;;;;;;27.99;38.73;101904.63;5075186;28;20491;-73
2022/07/18 11:18:04;;;;;;;1.60;1.20;;;;;;;28.19;40.86;101907.09;5075206;28;20426;-73
2022/07/18 11:20:37;;;;;;;2.50;1.03;;;;;;;28.41;37.85;101915.22;5075485;28;20426;-73
2022/07/18 11:23:13;;;;;;;1.00;0.80;;;;;;;28.66;36.47;101914.53;5075364;28;20425;-71
2022/07/18 11:25:41;;;;;;;3.70;1.53;;;;;;;28.72;35.89;101915.72;5075135;28;20500;-71
2022/07/18 11:28:09;;;;;;;2.47;1.10;;;;;;;29.00;37.67;101906.69;5075194;28;20438;-71